Time;durP1;ratioP1;P1;durP2;ratioP2;P2;SDS_P1;SDS_P2;PMS_P1;PMS_P2;Temp;Humidity;BMP_temperature;BMP_pressure;BME280_temperature;BME280_humidity;BME280_pressure;Samples;Min_cycle;Max_cycle;Signal;HPM_P1;HPM_P2
2023/06/04 00:02:20;;;;;;;12.52;8.70;;;20.20;99.90;;;;;;5094249;28;20102;-77
2023/06/04 00:04:46;;;;;;;11.70;8.00;;;20.20;99.90;;;;;;5094152;28;20024;-76
2023/06/04 00:07:12;;;;;;;13.43;7.93;;;20.10;99.90;;;;;;5093743;28;20059;-76
2023/06/04 00:09:38;;;;;;;14.70;8.00;;;20.00;99.90;;;;;;5099101;28;20023;-76
2023/06/04 00:12:05;;;;;;;11.60;8.20;;;20.00;99.90;;;;;;5095538;28;20472;-78
2023/06/04 00:14:31;;;;;;;13.40;8.10;;;20.00;99.90;;;;;;5114182;28;20027;-77
2023/06/04 00:16:57;;;;;;;11.52;7.53;;;19.90;99.90;;;;;;5113903;28;20122;-76
2023/06/04 00:19:23;;;;;;;12.68;7.85;;;19.90;99.90;;;;;;5114165;28;20020;-76
2023/06/04 00:21:49;;;;;;;12.70;8.20;;;19.90;99.90;;;;;;5113547;28;20414;-76
2023/06/04 00:24:16;;;;;;;14.65;8.48;;;19.80;99.90;;;;;;5114023;28;20031;-77
2023/06/04 00:26:43;;;;;;;12.73;8.50;;;19.60;99.90;;;;;;5113857;28;20031;-77
2023/06/04 00:29:09;;;;;;;13.52;8.35;;;19.50;99.90;;;;;;5113910;28;20031;-76
2023/06/04 00:31:35;;;;;;;9.90;8.18;;;19.50;99.90;;;;;;5094943;28;20028;-77
2023/06/04 00:34:03;;;;;;;13.23;7.80;;;19.40;99.90;;;;;;5093371;28;20472;-76
2023/06/04 00:36:29;;;;;;;9.80;7.40;;;19.40;99.90;;;;;;5074739;28;20123;-77
2023/06/04 00:38:55;;;;;;;10.18;7.10;;;19.40;99.90;;;;;;5093022;28;20038;-76
2023/06/04 00:41:21;;;;;;;10.20;7.53;;;19.40;99.90;;;;;;5113081;28;20035;-76
2023/06/04 00:43:55;;;;;;;12.90;7.40;;;19.40;99.90;;;;;;5113702;28;20023;-77
2023/06/04 00:46:25;;;;;;;11.07;7.35;;;19.40;99.90;;;;;;5094922;28;20024;-77
2023/06/04 00:48:52;;;;;;;12.18;7.65;;;19.40;99.90;;;;;;5094744;28;20031;-76
2023/06/04 00:51:18;;;;;;;10.38;7.07;;;19.30;99.90;;;;;;5113491;28;20027;-77
2023/06/04 00:53:45;;;;;;;11.27;7.53;;;19.30;99.90;;;;;;5113244;28;20031;-76
2023/06/04 00:56:11;;;;;;;12.43;7.30;;;19.30;99.90;;;;;;5113364;28;20020;-76
2023/06/04 00:58:38;;;;;;;;;;;19.30;99.90;;;;;;5095168;28;20040;-78
2023/06/04 01:01:10;;;;;;;10.75;7.18;;;19.30;99.90;;;;;;5098796;28;20450;-76
2023/06/04 01:03:42;;;;;;;9.55;7.20;;;19.30;99.90;;;;;;5092629;28;20021;-77
2023/06/04 01:06:38;;;;;;;10.25;7.28;;;19.30;99.90;;;;;;5092848;28;20046;-78
2023/06/04 01:09:05;;;;;;;12.55;7.30;;;19.30;99.90;;;;;;5093176;28;20056;-77
2023/06/04 01:11:41;;;;;;;11.32;7.30;;;19.20;99.90;;;;;;5112506;28;20059;-76
2023/06/04 01:14:09;;;;;;;11.75;7.60;;;19.20;99.90;;;;;;5113087;28;20168;-76
2023/06/04 01:17:01;;;;;;;9.18;7.50;;;19.10;99.90;;;;;;5094208;28;20085;-76
2023/06/04 01:20:04;;;;;;;11.27;8.02;;;19.10;99.90;;;;;;5112871;28;20024;-76
2023/06/04 01:22:59;;;;;;;11.55;7.78;;;19.10;99.90;;;;;;5112669;28;20471;-77
2023/06/04 01:25:38;;;;;;;10.60;7.60;;;19.10;99.90;;;;;;5112876;28;20019;-78
2023/06/04 01:28:12;;;;;;;11.57;7.80;;;19.10;99.90;;;;;;5112492;28;20030;-77
2023/06/04 01:30:45;;;;;;;9.73;7.60;;;19.10;99.90;;;;;;5102123;28;20032;-77
2023/06/04 01:33:17;;;;;;;12.82;7.95;;;19.10;99.90;;;;;;5073726;28;20028;-77
2023/06/04 01:35:43;;;;;;;11.60;7.55;;;19.10;99.90;;;;;;5092048;28;20024;-77
2023/06/04 01:38:10;;;;;;;10.32;7.47;;;19.10;99.90;;;;;;5092177;28;20450;-77
2023/06/04 01:40:36;;;;;;;12.32;7.88;;;19.20;99.90;;;;;;5105679;28;20099;-76
2023/06/04 01:43:03;;;;;;;10.88;7.97;;;19.10;99.90;;;;;;5093648;28;20451;-77
2023/06/04 01:45:30;;;;;;;11.77;7.20;;;19.10;99.90;;;;;;5112311;28;20434;-77
2023/06/04 01:47:56;;;;;;;11.75;8.05;;;19.10;99.90;;;;;;5112496;28;20056;-78
2023/06/04 01:50:23;;;;;;;11.18;7.43;;;19.00;99.90;;;;;;5112413;28;20118;-77
2023/06/04 01:52:49;;;;;;;9.27;7.57;;;19.00;99.90;;;;;;5112614;28;20178;-77
2023/06/04 01:55:17;;;;;;;12.60;7.72;;;19.00;99.90;;;;;;5112323;28;20097;-77
2023/06/04 01:57:44;;;;;;;10.70;8.07;;;19.00;99.90;;;;;;5111670;28;20063;-76
2023/06/04 02:00:11;;;;;;;12.45;7.50;;;18.90;99.90;;;;;;5087007;28;20046;-77
2023/06/04 02:02:38;;;;;;;11.05;7.65;;;18.90;99.90;;;;;;5091590;28;20035;-79
2023/06/04 02:05:08;;;;;;;11.30;8.15;;;18.90;99.90;;;;;;5091827;28;20107;-78
2023/06/04 02:07:38;;;;;;;15.30;8.13;;;18.90;99.90;;;;;;5091862;28;20513;-77
2023/06/04 02:10:06;;;;;;;14.32;8.50;;;18.80;99.90;;;;;;5082047;28;20047;-77
2023/06/04 02:12:32;;;;;;;14.00;8.70;;;18.80;99.90;;;;;;5111845;28;20029;-76
2023/06/04 02:14:58;;;;;;;10.32;8.43;;;18.90;99.90;;;;;;5111739;28;20103;-78
2023/06/04 02:17:25;;;;;;;10.60;7.78;;;18.80;99.90;;;;;;5111592;28;20059;-77
2023/06/04 02:19:51;;;;;;;11.77;8.57;;;18.80;99.90;;;;;;5111507;28;20403;-79
2023/06/04 02:22:18;;;;;;;13.05;9.02;;;18.80;99.90;;;;;;5092549;28;20035;-78
2023/06/04 02:24:44;;;;;;;11.63;8.57;;;18.70;99.90;;;;;;5111910;28;20030;-76
2023/06/04 02:27:12;;;;;;;12.25;8.70;;;18.70;99.90;;;;;;5111557;28;20076;-77
2023/06/04 02:29:41;;;;;;;12.07;8.00;;;18.70;99.90;;;;;;5091116;28;20142;-78
2023/06/04 02:32:08;;;;;;;12.50;8.80;;;18.80;99.90;;;;;;5072940;28;20031;-77
2023/06/04 02:34:35;;;;;;;12.68;8.45;;;18.80;99.90;;;;;;5091224;28;20024;-76
2023/06/04 02:37:02;;;;;;;13.20;8.48;;;18.80;99.90;;;;;;5056073;28;20028;-76
2023/06/04 02:39:28;;;;;;;11.38;9.20;;;18.70;99.90;;;;;;5095410;28;20049;-77
2023/06/04 02:41:54;;;;;;;12.65;9.20;;;18.70;99.90;;;;;;5111209;28;20102;-77
2023/06/04 02:44:21;;;;;;;11.65;8.32;;;18.70;99.90;;;;;;5111300;28;20028;-76
2023/06/04 02:46:47;;;;;;;12.40;8.90;;;18.70;99.90;;;;;;5111808;28;20024;-77
2023/06/04 02:49:13;;;;;;;14.20;8.98;;;18.70;99.90;;;;;;5111370;28;20107;-77
2023/06/04 02:51:40;;;;;;;11.88;8.32;;;18.80;99.90;;;;;;5111496;28;20027;-77
2023/06/04 02:54:07;;;;;;;12.57;8.00;;;18.80;99.90;;;;;;5111682;28;20034;-78
2023/06/04 02:56:35;;;;;;;11.75;8.30;;;18.80;99.90;;;;;;5110999;28;20472;-77
2023/06/04 02:59:01;;;;;;;10.55;8.10;;;18.70;99.90;;;;;;5111126;28;20056;-77
2023/06/04 03:01:27;;;;;;;11.00;8.43;;;18.70;99.90;;;;;;5093926;28;20020;-77
2023/06/04 03:03:54;;;;;;;11.50;8.30;;;18.60;99.90;;;;;;5090961;28;20084;-76
2023/06/04 03:06:22;;;;;;;13.70;8.15;;;18.60;99.90;;;;;;5106641;28;20036;-77
2023/06/04 03:08:51;;;;;;;10.85;8.50;;;18.60;99.90;;;;;;5090628;28;20130;-76
2023/06/04 03:11:21;;;;;;;12.50;8.50;;;18.50;99.90;;;;;;5110035;28;20117;-75
2023/06/04 03:13:48;;;;;;;12.18;7.63;;;18.60;99.90;;;;;;5111017;28;20020;-78
2023/06/04 03:16:14;;;;;;;12.70;9.20;;;18.70;99.90;;;;;;5110923;28;20059;-77
2023/06/04 03:18:42;;;;;;;12.18;9.02;;;18.70;99.90;;;;;;5110992;28;20114;-77
2023/06/04 03:21:08;;;;;;;8.90;7.10;;;18.70;99.90;;;;;;5110891;28;20027;-75
2023/06/04 03:23:34;;;;;;;;;;;18.60;99.90;;;;;;5111518;28;20031;-77
2023/06/04 03:26:04;;;;;;;10.30;7.00;;;18.70;99.90;;;;;;5092610;28;19904;-76
2023/06/04 03:28:31;;;;;;;12.40;7.55;;;18.70;99.90;;;;;;5092625;28;20418;-79
2023/06/04 03:30:57;;;;;;;;;;;18.60;99.90;;;;;;5098179;28;20032;-77
2023/06/04 03:33:24;;;;;;;11.25;7.07;;;18.60;99.90;;;;;;5093154;28;20282;-77
2023/06/04 03:35:53;;;;;;;10.20;7.18;;;18.60;99.90;;;;;;5094807;28;20032;-77
2023/06/04 03:38:20;;;;;;;10.43;7.70;;;18.60;99.90;;;;;;5094247;28;20027;-77
2023/06/04 03:40:46;;;;;;;11.02;7.00;;;18.70;99.90;;;;;;5109408;28;20028;-78
2023/06/04 03:43:12;;;;;;;10.32;7.30;;;18.60;99.90;;;;;;5114196;28;20424;-76
2023/06/04 03:45:38;;;;;;;13.25;6.90;;;18.60;99.90;;;;;;5114751;28;20395;-77
2023/06/04 03:48:04;;;;;;;10.20;6.80;;;18.60;99.90;;;;;;5114791;28;20027;-78
2023/06/04 03:50:31;;;;;;;9.75;7.10;;;18.70;99.90;;;;;;5114914;28;20027;-77
2023/06/04 03:52:57;;;;;;;10.63;7.63;;;18.70;99.90;;;;;;5114581;28;20035;-77
2023/06/04 03:55:24;;;;;;;9.68;7.43;;;18.70;99.90;;;;;;5114209;28;20047;-78
2023/06/04 03:57:50;;;;;;;9.50;6.88;;;18.60;99.90;;;;;;5113851;28;20035;-78
2023/06/04 04:00:16;;;;;;;11.45;6.80;;;18.70;99.90;;;;;;5107018;28;20020;-77
2023/06/04 04:02:42;;;;;;;9.80;6.80;;;18.60;99.90;;;;;;5075330;28;20028;-77
2023/06/04 04:05:10;;;;;;;12.02;7.45;;;18.70;99.90;;;;;;5093790;28;20089;-78
2023/06/04 04:07:37;;;;;;;10.35;6.72;;;18.70;99.90;;;;;;5109140;28;20024;-78
2023/06/04 04:10:04;;;;;;;9.50;6.90;;;18.70;99.90;;;;;;5102526;28;20047;-78
2023/06/04 04:12:30;;;;;;;13.15;7.10;;;18.80;99.90;;;;;;5113893;28;20531;-76
2023/06/04 04:14:56;;;;;;;10.73;7.50;;;18.80;99.90;;;;;;5113990;28;20020;-77
2023/06/04 04:17:22;;;;;;;15.02;6.70;;;18.90;99.90;;;;;;5113868;28;20420;-77
2023/06/04 04:19:48;;;;;;;10.13;6.35;;;19.00;99.90;;;;;;5113880;28;20036;-77
2023/06/04 04:22:17;;;;;;;10.05;6.97;;;18.90;99.90;;;;;;5095296;28;20501;-77
2023/06/04 04:24:43;;;;;;;8.35;6.47;;;19.00;99.90;;;;;;5114109;28;20127;-77
2023/06/04 04:27:13;;;;;;;8.85;6.93;;;19.10;99.90;;;;;;5113801;28;20028;-76
2023/06/04 04:29:39;;;;;;;12.23;6.63;;;19.10;99.90;;;;;;5111722;28;20073;-77
2023/06/04 04:32:10;;;;;;;8.70;6.75;;;19.20;99.90;;;;;;5093273;28;20093;-77
2023/06/04 04:34:39;;;;;;;10.35;6.80;;;19.20;99.90;;;;;;5093647;28;20111;-77
2023/06/04 04:37:08;;;;;;;13.10;7.97;;;19.40;99.90;;;;;;5074926;28;20372;-77
2023/06/04 04:39:35;;;;;;;17.27;8.60;;;19.50;99.90;;;;;;5079802;28;20073;-78
2023/06/04 04:42:02;;;;;;;13.77;9.35;;;19.60;99.90;;;;;;5113249;28;20305;-77
2023/06/04 04:44:29;;;;;;;12.45;8.25;;;19.70;99.90;;;;;;5112563;28;20015;-78
2023/06/04 04:46:55;;;;;;;15.18;9.10;;;19.80;99.90;;;;;;5113652;28;20439;-77
2023/06/04 04:49:21;;;;;;;13.00;9.00;;;19.80;99.90;;;;;;5113762;28;20470;-77
2023/06/04 04:51:47;;;;;;;17.83;10.68;;;19.90;99.90;;;;;;5113825;28;20435;-77
2023/06/04 04:54:13;;;;;;;12.57;8.55;;;20.00;99.90;;;;;;5113170;28;20474;-78
2023/06/04 04:56:39;;;;;;;15.65;8.43;;;20.10;99.90;;;;;;5112876;28;20032;-78
2023/06/04 04:59:05;;;;;;;14.05;7.75;;;20.20;99.90;;;;;;5113164;28;20064;-77
2023/06/04 05:01:31;;;;;;;17.42;8.40;;;20.70;99.90;;;;;;5095117;28;20112;-77
2023/06/04 05:03:58;;;;;;;9.65;6.95;;;21.20;99.90;;;;;;5092773;28;20024;-78
2023/06/04 05:06:24;;;;;;;11.98;6.65;;;21.60;99.90;;;;;;5074387;28;20039;-77
2023/06/04 05:08:51;;;;;;;10.82;7.10;;;22.30;99.90;;;;;;5092754;28;20024;-75
2023/06/04 05:11:17;;;;;;;11.75;6.80;;;22.90;99.90;;;;;;5111665;28;20083;-77
2023/06/04 05:13:43;;;;;;;10.57;5.75;;;23.40;99.90;;;;;;5112455;28;20039;-77
2023/06/04 05:16:11;;;;;;;8.27;4.80;;;24.20;99.90;;;;;;5112954;28;20055;-77
2023/06/04 05:18:41;;;;;;;8.70;4.95;;;24.90;99.90;;;;;;5094141;28;20051;-77
2023/06/04 05:21:08;;;;;;;7.35;4.88;;;25.50;99.90;;;;;;5112863;28;20016;-78
2023/06/04 05:23:36;;;;;;;11.27;4.95;;;25.70;99.90;;;;;;5094423;28;20080;-78
2023/06/04 05:26:04;;;;;;;7.82;4.70;;;25.80;99.90;;;;;;5094014;28;20023;-79
2023/06/04 05:28:33;;;;;;;7.93;4.43;;;26.10;99.90;;;;;;5093766;28;20032;-77
2023/06/04 05:31:00;;;;;;;7.35;4.35;;;26.50;99.90;;;;;;5098941;28;20441;-77
2023/06/04 05:33:26;;;;;;;7.88;4.20;;;26.60;99.90;;;;;;5092042;28;20107;-78
2023/06/04 05:35:54;;;;;;;6.43;4.00;;;26.60;99.90;;;;;;5092288;28;20056;-77
2023/06/04 05:38:25;;;;;;;9.82;4.18;;;27.30;99.90;;;;;;5091767;28;20040;-79
2023/06/04 05:40:53;;;;;;;7.18;3.58;;;28.10;99.90;;;;;;5107749;28;20116;-76
2023/06/04 05:43:20;;;;;;;9.18;3.97;;;28.90;99.90;;;;;;5112033;28;20340;-77
2023/06/04 05:45:46;;;;;;;7.90;4.13;;;29.90;99.90;;;;;;5112123;28;20034;-77
2023/06/04 05:48:12;;;;;;;7.38;3.83;;;28.90;99.90;;;;;;5112374;28;20483;-78
2023/06/04 05:50:38;;;;;;;6.07;3.55;;;28.10;99.90;;;;;;5112216;28;20035;-78
2023/06/04 05:53:05;;;;;;;8.35;3.85;;;26.90;99.90;;;;;;5112173;28;20361;-78
2023/06/04 05:55:31;;;;;;;9.15;3.67;;;26.90;99.90;;;;;;5112167;28;20052;-79
2023/06/04 05:57:57;;;;;;;11.05;3.40;;;27.40;99.90;;;;;;5111960;28;20032;-78
2023/06/04 06:00:23;;;;;;;;;;;26.70;99.90;;;;;;5104003;28;20145;-77
2023/06/04 06:02:52;;;;;;;8.18;3.63;;;26.60;99.90;;;;;;5092025;28;20328;-78
2023/06/04 06:05:19;;;;;;;8.68;3.65;;;27.00;99.90;;;;;;5091823;28;20023;-78
2023/06/04 06:07:46;;;;;;;8.20;3.30;;;26.20;99.90;;;;;;5073341;28;20054;-76
2023/06/04 06:10:12;;;;;;;5.78;3.38;;;26.10;99.90;;;;;;5101436;28;20126;-78
2023/06/04 06:12:38;;;;;;;6.53;3.58;;;26.40;99.90;;;;;;5111648;28;20071;-78
2023/06/04 06:15:05;;;;;;;5.25;3.42;;;27.00;99.90;;;;;;5112249;28;20047;-78
2023/06/04 06:17:32;;;;;;;11.63;4.40;;;26.70;99.90;;;;;;5112281;28;20043;-78
2023/06/04 06:19:59;;;;;;;9.75;3.97;;;25.40;99.90;;;;;;5112156;28;20019;-77
2023/06/04 06:22:25;;;;;;;9.77;4.00;;;25.40;99.90;;;;;;5111872;28;20098;-77
2023/06/04 06:24:51;;;;;;;;;;;25.40;99.90;;;;;;5112671;28;20035;-77
2023/06/04 06:27:17;;;;;;;;;;;25.50;99.90;;;;;;5112190;28;19904;-77
2023/06/04 06:29:43;;;;;;;;;;;27.60;99.90;;;;;;5090903;28;19904;-77
2023/06/04 06:32:11;;;;;;;9.05;4.18;;;26.40;99.90;;;;;;5091528;28;19904;-77
2023/06/04 06:34:40;;;;;;;9.50;3.60;;;26.40;99.90;;;;;;5091559;28;20039;-76
2023/06/04 06:37:07;;;;;;;6.28;3.35;;;26.90;99.90;;;;;;5091545;28;20027;-77
2023/06/04 06:39:33;;;;;;;9.00;3.47;;;27.50;99.90;;;;;;5096042;28;20190;-77
2023/06/04 06:41:59;;;;;;;8.18;3.53;;;28.20;99.90;;;;;;5111424;28;20061;-77
2023/06/04 06:44:25;;;;;;;7.10;3.70;;;28.90;99.90;;;;;;5112010;28;20142;-78
2023/06/04 06:46:51;;;;;;;13.07;3.72;;;28.30;99.90;;;;;;5111566;28;20063;-77
2023/06/04 06:49:17;;;;;;;6.80;3.47;;;27.60;99.90;;;;;;5111490;28;20360;-77
2023/06/04 06:51:43;;;;;;;11.48;4.00;;;28.00;99.90;;;;;;5111815;28;20119;-79
2023/06/04 06:54:10;;;;;;;13.98;3.78;;;28.80;99.90;;;;;;5093089;28;20069;-77
2023/06/04 06:56:36;;;;;;;6.97;3.40;;;29.50;99.90;;;;;;5092831;28;20067;-77
2023/06/04 06:59:02;;;;;;;10.50;3.78;;;30.80;99.90;;;;;;5092671;28;20050;-77
2023/06/04 07:01:28;;;;;;;;;;;29.70;99.90;;;;;;5094293;28;20073;-79
2023/06/04 07:03:54;;;;;;;20.58;4.43;;;30.40;99.90;;;;;;5091284;28;19908;-77
2023/06/04 07:06:20;;;;;;;11.07;3.90;;;29.90;99.90;;;;;;5106619;28;20135;-77
2023/06/04 07:08:48;;;;;;;11.32;4.15;;;30.50;99.90;;;;;;5094353;28;20016;-76
2023/06/04 07:11:14;;;;;;;9.05;3.70;;;31.20;99.90;;;;;;5113691;28;20055;-77
2023/06/04 07:13:40;;;;;;;8.57;3.63;;;32.60;99.90;;;;;;5115338;28;20020;-77
2023/06/04 07:16:06;;;;;;;;;;;33.30;99.90;;;;;;5097261;28;20329;-77
2023/06/04 07:18:32;;;;;;;11.50;3.58;;;33.00;99.90;;;;;;5115678;28;20334;-77
2023/06/04 07:20:59;;;;;;;7.45;3.70;;;33.20;99.90;;;;;;5115331;28;20034;-78
2023/06/04 07:23:25;;;;;;;10.27;4.05;;;32.70;99.90;;;;;;5096826;28;20081;-77
2023/06/04 07:25:51;;;;;;;11.07;4.28;;;32.70;99.90;;;;;;5115353;28;20031;-77
2023/06/04 07:28:17;;;;;;;7.40;3.90;;;32.70;99.90;;;;;;5096517;28;20056;-78
2023/06/04 07:30:45;;;;;;;;;;;31.90;99.90;;;;;;5103986;28;20388;-77
2023/06/04 07:33:11;;;;;;;11.60;4.60;;;31.60;99.90;;;;;;5094741;28;19908;-77
2023/06/04 07:35:37;;;;;;;;;;;31.10;99.90;;;;;;5095426;28;20024;-77
2023/06/04 07:38:03;;;;;;;10.95;4.57;;;30.70;99.90;;;;;;5094448;28;20054;-77
2023/06/04 07:40:29;;;;;;;10.98;4.53;;;30.30;99.90;;;;;;5106735;28;20056;-77
2023/06/04 07:42:55;;;;;;;;;;;30.10;99.90;;;;;;5114760;28;20143;-78
2023/06/04 07:45:21;;;;;;;10.77;5.13;;;29.80;99.90;;;;;;5114825;28;20381;-76
2023/06/04 07:47:47;;;;;;;;;;;29.60;99.90;;;;;;5115209;28;20024;-77
2023/06/04 07:50:13;;;;;;;10.82;4.65;;;29.20;99.90;;;;;;5114452;28;19903;-78
2023/06/04 07:52:39;;;;;;;11.30;5.35;;;29.10;99.90;;;;;;5113619;28;20480;-76
2023/06/04 07:55:05;;;;;;;9.98;4.72;;;28.90;99.90;;;;;;5113992;28;20027;-77
2023/06/04 07:57:32;;;;;;;15.38;5.50;;;28.50;99.90;;;;;;5113831;28;20043;-77
2023/06/04 07:59:59;;;;;;;11.77;5.40;;;28.90;99.90;;;;;;5109020;28;20114;-77
2023/06/04 08:02:25;;;;;;;13.65;5.40;;;28.90;99.90;;;;;;5109265;28;20330;-78
2023/06/04 08:04:52;;;;;;;11.55;5.65;;;29.00;99.90;;;;;;5093599;28;20022;-77
2023/06/04 08:07:18;;;;;;;16.92;5.88;;;28.90;99.90;;;;;;5093537;28;20024;-77
2023/06/04 08:09:45;;;;;;;14.02;5.80;;;28.50;99.90;;;;;;5099925;28;20075;-78
2023/06/04 08:12:11;;;;;;;12.15;6.15;;;28.50;99.90;;;;;;5114203;28;20035;-76
2023/06/04 08:14:37;;;;;;;12.43;5.55;;;28.40;99.90;;;;;;5113939;28;20016;-77
2023/06/04 08:17:03;;;;;;;12.48;6.20;;;28.20;99.90;;;;;;5113911;28;20067;-77
2023/06/04 08:19:29;;;;;;;12.15;5.68;;;27.40;99.90;;;;;;5113410;28;20448;-77
2023/06/04 08:21:55;;;;;;;14.27;5.90;;;26.10;99.90;;;;;;5114330;28;20038;-76
2023/06/04 08:24:22;;;;;;;11.15;5.45;;;25.20;99.90;;;;;;5114489;28;20024;-77
2023/06/04 08:26:48;;;;;;;;;;;24.60;99.90;;;;;;5114674;28;20422;-77
2023/06/04 08:29:13;;;;;;;;;;;25.40;99.90;;;;;;5114332;28;19911;-76
2023/06/04 08:31:40;;;;;;;7.95;5.20;;;26.10;99.90;;;;;;5094926;28;19957;-76
2023/06/04 08:34:06;;;;;;;13.68;5.40;;;26.80;99.90;;;;;;5093712;28;20024;-76
2023/06/04 08:36:32;;;;;;;14.25;6.18;;;27.30;99.90;;;;;;5093437;28;20060;-77
2023/06/04 08:38:59;;;;;;;9.10;5.40;;;27.50;99.90;;;;;;5093295;28;20024;-76
2023/06/04 08:41:32;;;;;;;12.90;5.72;;;27.60;99.90;;;;;;5114027;28;20396;-77
2023/06/04 08:44:01;;;;;;;13.80;5.80;;;26.40;99.90;;;;;;5113862;28;20515;-76
2023/06/04 08:46:29;;;;;;;10.55;6.45;;;26.50;99.90;;;;;;5114136;28;20358;-77
2023/06/04 08:49:01;;;;;;;14.15;6.60;;;26.40;99.90;;;;;;5113561;28;20031;-77
2023/06/04 08:51:27;;;;;;;14.35;8.38;;;27.20;99.90;;;;;;5112627;28;20348;-77
2023/06/04 08:53:55;;;;;;;11.15;7.18;;;27.20;99.90;;;;;;5094143;28;20103;-76
2023/06/04 08:56:22;;;;;;;12.93;7.32;;;26.40;99.90;;;;;;5113253;28;20035;-77
2023/06/04 08:58:48;;;;;;;12.02;6.60;;;26.50;99.90;;;;;;5112661;28;20038;-76
2023/06/04 09:01:14;;;;;;;;;;;26.60;99.90;;;;;;5097913;28;20020;-77
2023/06/04 09:03:41;;;;;;;;;;;26.50;99.90;;;;;;5093005;28;19943;-77
2023/06/04 09:06:08;;;;;;;14.63;6.85;;;26.70;99.90;;;;;;5092508;28;19910;-77
2023/06/04 09:08:40;;;;;;;17.55;6.15;;;27.10;99.90;;;;;;5092508;28;20083;-76
2023/06/04 09:11:10;;;;;;;13.10;6.40;;;27.50;99.90;;;;;;5109892;28;20280;-77
2023/06/04 09:13:37;;;;;;;9.40;5.82;;;27.70;99.90;;;;;;5111978;28;20065;-77
2023/06/04 09:16:08;;;;;;;11.85;6.57;;;27.80;99.90;;;;;;5112026;28;20069;-76
2023/06/04 09:18:34;;;;;;;11.10;6.30;;;27.50;99.90;;;;;;5112232;28;20076;-77
2023/06/04 09:21:05;;;;;;;12.55;6.72;;;27.70;99.90;;;;;;5093469;28;20049;-76
2023/06/04 09:23:52;;;;;;;8.85;5.85;;;27.90;99.90;;;;;;5112045;28;20051;-77
2023/06/04 09:26:18;;;;;;;8.85;5.80;;;28.00;99.90;;;;;;5112369;28;20019;-77
2023/06/04 09:28:46;;;;;;;13.48;6.00;;;28.10;99.90;;;;;;5111970;28;20028;-76
2023/06/04 09:31:16;;;;;;;11.18;5.68;;;28.00;99.90;;;;;;5077723;28;20016;-76
2023/06/04 09:33:44;;;;;;;12.63;5.75;;;28.10;99.90;;;;;;5090946;28;20035;-77
2023/06/04 09:36:10;;;;;;;12.63;5.65;;;27.90;99.90;;;;;;5090674;28;20031;-76
2023/06/04 09:38:36;;;;;;;13.82;5.32;;;27.70;99.90;;;;;;5090899;28;20413;-76
2023/06/04 09:41:06;;;;;;;11.43;5.03;;;27.80;99.90;;;;;;5108678;28;20019;-76
2023/06/04 09:43:33;;;;;;;14.32;5.32;;;27.90;99.90;;;;;;5111676;28;20051;-77
2023/06/04 09:46:10;;;;;;;11.57;4.93;;;28.10;99.90;;;;;;5111712;28;20028;-78
2023/06/04 09:48:37;;;;;;;7.05;4.90;;;27.70;99.90;;;;;;5111799;28;20065;-76
2023/06/04 09:51:11;;;;;;;8.85;4.60;;;27.90;99.90;;;;;;5111954;28;20032;-76
2023/06/04 09:53:38;;;;;;;10.18;4.70;;;28.00;99.90;;;;;;5111704;28;20107;-77
2023/06/04 09:56:10;;;;;;;8.77;4.68;;;27.90;99.90;;;;;;5111908;28;20038;-78
2023/06/04 09:58:38;;;;;;;10.45;4.65;;;28.20;99.90;;;;;;5111533;28;20040;-77
2023/06/04 10:01:06;;;;;;;10.57;4.38;;;27.90;99.90;;;;;;5097618;28;20646;-77
2023/06/04 10:03:36;;;;;;;10.95;4.90;;;27.80;99.90;;;;;;5091157;28;20392;-76
2023/06/04 10:06:06;;;;;;;10.18;4.60;;;27.80;99.90;;;;;;5091589;28;20473;-77
2023/06/04 10:08:34;;;;;;;12.85;5.15;;;27.80;99.90;;;;;;5091303;28;20020;-76
2023/06/04 10:11:02;;;;;;;11.57;4.80;;;27.70;99.90;;;;;;5120244;27;20511;-78
2023/06/04 10:13:38;;;;;;;9.40;4.40;;;27.70;99.90;;;;;;5091381;28;20162;-78
2023/06/04 10:16:06;;;;;;;12.68;4.80;;;28.00;99.90;;;;;;5091410;28;20043;-77
2023/06/04 10:18:34;;;;;;;11.02;4.90;;;27.90;99.90;;;;;;5089824;28;20480;-76
2023/06/04 10:21:01;;;;;;;9.95;5.03;;;27.60;99.90;;;;;;5091393;28;20028;-77
2023/06/04 10:23:29;;;;;;;14.20;4.88;;;27.60;99.90;;;;;;5091533;28;20035;-76
2023/06/04 10:25:56;;;;;;;11.90;4.97;;;27.80;99.90;;;;;;5091337;28;20460;-77
2023/06/04 10:28:23;;;;;;;13.20;5.30;;;27.80;99.90;;;;;;5090967;28;20467;-78
2023/06/04 10:30:50;;;;;;;11.93;5.18;;;27.40;99.90;;;;;;5077710;28;20029;-76
2023/06/04 10:33:24;;;;;;;11.18;5.70;;;27.70;99.90;;;;;;5070602;28;20043;-76
2023/06/04 10:35:53;;;;;;;15.02;6.35;;;27.60;99.90;;;;;;5071085;28;20047;-76
2023/06/04 10:38:21;;;;;;;18.10;8.82;;;27.90;99.90;;;;;;5070608;28;20033;-77
2023/06/04 10:40:48;;;;;;;12.75;6.20;;;28.10;99.90;;;;;;5085717;28;20131;-77
2023/06/04 10:43:18;;;;;;;18.55;10.20;;;28.20;99.90;;;;;;5089979;28;20032;-77
2023/06/04 10:45:45;;;;;;;23.58;13.52;;;27.90;99.90;;;;;;5091268;28;20016;-76
2023/06/04 10:48:12;;;;;;;14.90;8.48;;;27.20;99.90;;;;;;5090683;28;20047;-77
2023/06/04 10:50:52;;;;;;;13.93;7.43;;;26.90;99.90;;;;;;5089337;28;20024;-77
2023/06/04 10:53:19;;;;;;;12.93;6.38;;;27.00;99.90;;;;;;5090784;28;20084;-77
2023/06/04 10:55:47;;;;;;;14.73;6.00;;;27.10;99.90;;;;;;5090658;28;20024;-77
2023/06/04 10:58:13;;;;;;;11.77;4.93;;;26.90;99.90;;;;;;5090330;28;20039;-78
2023/06/04 11:00:41;;;;;;;;;;;26.80;99.90;;;;;;5080294;28;20016;-77
2023/06/04 11:03:09;;;;;;;12.05;6.30;;;26.60;99.90;;;;;;5070611;28;19909;-76
2023/06/04 11:05:46;;;;;;;18.98;12.55;;;26.50;99.90;;;;;;5070449;28;20024;-76
2023/06/04 11:08:14;;;;;;;18.55;10.65;;;26.20;99.90;;;;;;5068783;28;20024;-76
2023/06/04 11:10:45;;;;;;;15.57;8.32;;;26.20;99.90;;;;;;5094894;28;20048;-77
2023/06/04 11:13:11;;;;;;;15.18;7.03;;;26.20;99.90;;;;;;5110392;28;20047;-77
2023/06/04 11:15:48;;;;;;;11.07;5.88;;;26.40;99.90;;;;;;5110577;28;20019;-76
2023/06/04 11:18:18;;;;;;;;;;;26.60;99.90;;;;;;5110869;28;20086;-78
2023/06/04 11:20:48;;;;;;;13.43;6.25;;;27.00;99.90;;;;;;5111028;28;19926;-76
2023/06/04 11:23:16;;;;;;;10.43;5.57;;;27.00;99.90;;;;;;5110638;28;20110;-76
2023/06/04 11:25:43;;;;;;;11.80;6.25;;;27.30;99.90;;;;;;5092185;28;20016;-76
2023/06/04 11:28:17;;;;;;;13.13;5.22;;;27.50;99.90;;;;;;5114591;28;20153;-77
2023/06/04 11:30:44;;;;;;;10.45;4.55;;;27.60;99.90;;;;;;5099597;28;20024;-76
2023/06/04 11:33:10;;;;;;;10.52;4.68;;;27.70;99.90;;;;;;5090100;28;20024;-78
2023/06/04 11:35:43;;;;;;;9.57;4.20;;;27.60;99.90;;;;;;5105428;28;20107;-76
2023/06/04 11:38:09;;;;;;;11.43;4.20;;;27.70;99.90;;;;;;5089675;28;20474;-76
2023/06/04 11:40:35;;;;;;;;;;;27.50;99.90;;;;;;5104153;28;20548;-75
2023/06/04 11:43:02;;;;;;;10.07;4.07;;;27.70;99.90;;;;;;5110449;28;19916;-76
2023/06/04 11:45:30;;;;;;;9.10;4.18;;;27.70;99.90;;;;;;5110480;28;20102;-77
2023/06/04 11:47:57;;;;;;;9.93;3.95;;;27.60;99.90;;;;;;5110416;28;20023;-77
2023/06/04 11:50:30;;;;;;;24.80;4.40;;;27.50;99.90;;;;;;5110471;28;20023;-77
2023/06/04 11:52:56;;;;;;;11.50;4.22;;;27.20;99.90;;;;;;5110729;28;20047;-77
2023/06/04 11:55:22;;;;;;;11.18;3.67;;;27.00;99.90;;;;;;5114074;28;20034;-75
2023/06/04 11:57:49;;;;;;;;;;;27.30;99.90;;;;;;5114087;28;20108;-76
2023/06/04 12:00:17;;;;;;;15.48;3.88;;;27.40;99.90;;;;;;5107071;28;20018;-76
2023/06/04 12:02:56;;;;;;;15.20;3.63;;;27.20;99.90;;;;;;5092998;28;20060;-77
2023/06/04 12:05:28;;;;;;;12.27;3.67;;;27.30;99.90;;;;;;5074861;28;20016;-76
2023/06/04 12:08:11;;;;;;;16.15;3.50;;;27.30;99.90;;;;;;5093634;28;20024;-76
2023/06/04 12:10:41;;;;;;;17.30;3.60;;;27.60;99.90;;;;;;5106808;28;20098;-76
2023/06/04 12:13:08;;;;;;;7.85;2.85;;;27.80;99.90;;;;;;5113537;28;20019;-75
2023/06/04 12:15:35;;;;;;;12.82;3.45;;;27.50;99.90;;;;;;5113661;28;20550;-75
2023/06/04 12:18:02;;;;;;;;;;;27.10;99.90;;;;;;5114135;28;20467;-76
2023/06/04 12:20:36;;;;;;;11.10;3.40;;;27.00;99.90;;;;;;5095093;28;19984;-77
2023/06/04 12:23:05;;;;;;;12.77;3.53;;;26.60;99.90;;;;;;5113631;28;20073;-76
2023/06/04 12:25:32;;;;;;;10.20;3.45;;;27.10;99.90;;;;;;5113268;28;20243;-76
2023/06/04 12:27:59;;;;;;;11.30;3.83;;;27.20;99.90;;;;;;5113439;28;20055;-76
2023/06/04 12:30:39;;;;;;;10.80;3.65;;;27.40;99.90;;;;;;5104921;28;20545;-75
2023/06/04 12:33:05;;;;;;;11.45;3.97;;;27.70;99.90;;;;;;5093222;28;20074;-76
2023/06/04 12:35:31;;;;;;;12.30;4.07;;;27.20;99.90;;;;;;5093185;28;20084;-76
2023/06/04 12:38:00;;;;;;;12.20;3.65;;;27.70;99.90;;;;;;5093064;28;20024;-77
2023/06/04 12:40:26;;;;;;;9.85;3.60;;;27.90;99.90;;;;;;5105300;28;20031;-76
2023/06/04 12:42:52;;;;;;;15.85;4.25;;;27.60;99.90;;;;;;5113269;28;20019;-76
2023/06/04 12:45:18;;;;;;;;;;;27.50;99.90;;;;;;5113297;28;20027;-76
2023/06/04 12:47:44;;;;;;;10.70;3.80;;;27.60;99.90;;;;;;5113372;28;19904;-76
2023/06/04 12:50:10;;;;;;;;;;;27.80;99.90;;;;;;5113553;28;20375;-76